createdAt,value
2022-11-29T00:02:48.057Z,21.17
2022-11-29T00:06:54.788Z,19.42
2022-11-29T00:11:36.021Z,18.95
2022-11-29T00:15:42.846Z,18.38
2022-11-29T00:19:50.560Z,18.50
2022-11-29T00:23:57.304Z,15.68
2022-11-29T00:28:04.078Z,16.50
2022-11-29T00:32:10.786Z,18.35
2022-11-29T00:36:17.628Z,16.20
2022-11-29T00:40:24.379Z,15.35
2022-11-29T00:44:31.170Z,16.70
2022-11-29T00:48:38.118Z,17.48
2022-11-29T00:52:44.804Z,16.60
2022-11-29T00:56:51.506Z,17.25
2022-11-29T01:00:58.348Z,17.83
2022-11-29T01:05:05.382Z,17.38
2022-11-29T01:09:12.076Z,19.73
2022-11-29T01:13:18.751Z,20.05
2022-11-29T01:17:25.427Z,19.23
2022-11-29T01:21:33.064Z,19.77
2022-11-29T01:25:39.743Z,18.08
2022-11-29T01:29:46.452Z,17.55
2022-11-29T01:33:54.906Z,17.05
2022-11-29T01:38:01.571Z,16.38
2022-11-29T01:42:11.570Z,15.25
2022-11-29T01:46:18.300Z,15.77
2022-11-29T01:50:25.218Z,17.90
2022-11-29T01:54:35.199Z,15.02
2022-11-29T01:58:45.472Z,17.27
2022-11-29T02:03:13.995Z,16.80
2022-11-29T02:07:20.709Z,18.73
2022-11-29T02:11:30.115Z,17.70
2022-11-29T02:15:53.070Z,16.30
2022-11-29T02:20:25.411Z,19.08
2022-11-29T02:25:04.330Z,18.63
2022-11-29T02:29:10.949Z,18.02
2022-11-29T02:33:35.156Z,16.33
2022-11-29T02:37:58.260Z,18.35
2022-11-29T02:42:26.084Z,17.80
2022-11-29T02:47:04.028Z,17.77
2022-11-29T02:51:37.993Z,17.95
2022-11-29T02:55:51.692Z,17.25
2022-11-29T03:00:09.110Z,18.40
2022-11-29T03:04:27.637Z,17.63
2022-11-29T03:08:37.108Z,17.92
2022-11-29T03:12:47.820Z,18.58
2022-11-29T03:17:13.831Z,19.70
2022-11-29T03:21:37.215Z,18.30
2022-11-29T03:25:56.671Z,19.05
2022-11-29T03:30:07.967Z,19.15
2022-11-29T03:34:32.763Z,20.42
2022-11-29T03:38:43.498Z,20.58
2022-11-29T03:43:00.542Z,20.45
2022-11-29T03:47:12.614Z,20.65
2022-11-29T03:51:26.522Z,20.33
2022-11-29T03:55:46.952Z,20.10
2022-11-29T04:00:05.071Z,19.75
2022-11-29T04:04:36.938Z,19.90
2022-11-29T04:08:55.942Z,19.42
2022-11-29T04:13:40.133Z,18.90
2022-11-29T04:18:34.749Z,18.67
2022-11-29T04:23:10.318Z,19.25
2022-11-29T04:27:53.984Z,19.02
2022-11-29T04:32:39.591Z,19.77
2022-11-29T04:37:28.587Z,17.23
2022-11-29T04:42:02.401Z,19.65
2022-11-29T04:46:46.826Z,18.30
2022-11-29T04:51:00.958Z,18.30
2022-11-29T04:55:31.016Z,18.52
2022-11-29T04:59:46.873Z,19.60
2022-11-29T05:04:08.677Z,19.02
2022-11-29T05:08:43.436Z,21.27
2022-11-29T05:13:24.659Z,19.95
2022-11-29T05:17:32.079Z,19.33
2022-11-29T05:22:24.897Z,20.35
2022-11-29T05:27:00.603Z,22.83
2022-11-29T05:31:16.591Z,20.98
2022-11-29T05:35:50.792Z,23.27
2022-11-29T05:40:20.525Z,19.52
2022-11-29T05:44:47.604Z,19.95
2022-11-29T05:49:16.096Z,20.08
2022-11-29T05:53:37.075Z,16.90
2022-11-29T05:58:03.945Z,18.20
2022-11-29T06:02:29.316Z,18.25
2022-11-29T06:06:46.884Z,13.18
2022-11-29T06:11:16.554Z,16.08
2022-11-29T06:15:36.620Z,16.38
2022-11-29T06:19:55.368Z,18.17
2022-11-29T06:24:25.913Z,14.43
2022-11-29T06:28:42.776Z,16.50
2022-11-29T06:33:18.844Z,15.82
2022-11-29T06:37:40.288Z,16.05
2022-11-29T06:41:47.880Z,15.93
2022-11-29T06:46:07.534Z,17.58
2022-11-29T06:50:33.541Z,15.57
2022-11-29T06:54:50.261Z,15.20
2022-11-29T06:59:33.004Z,16.88
2022-11-29T07:04:07.347Z,20.17
2022-11-29T07:08:23.092Z,17.05
2022-11-29T07:12:30.366Z,15.02
2022-11-29T07:17:01.836Z,11.90
2022-11-29T07:21:16.955Z,12.93
2022-11-29T07:26:02.056Z,15.75
2022-11-29T07:30:18.735Z,14.32
2022-11-29T07:35:07.237Z,16.33
2022-11-29T07:39:24.209Z,14.30
2022-11-29T07:44:04.331Z,13.27
2022-11-29T07:48:12.260Z,13.68
2022-11-29T07:52:19.033Z,13.00
2022-11-29T07:56:25.707Z,13.60
2022-11-29T08:00:32.424Z,12.50
2022-11-29T08:04:44.414Z,11.10
2022-11-29T08:08:51.390Z,12.05
2022-11-29T08:12:58.207Z,10.57
2022-11-29T08:17:05.143Z,7.93
2022-11-29T08:21:12.056Z,9.23
2022-11-29T08:25:18.781Z,8.98
2022-11-29T08:29:25.580Z,8.77
2022-11-29T08:33:34.210Z,10.30
2022-11-29T08:37:40.999Z,9.13
2022-11-29T08:41:49.667Z,9.43
2022-11-29T08:45:57.370Z,9.73
2022-11-29T08:50:10.130Z,8.55
2022-11-29T08:54:16.781Z,8.00
2022-11-29T08:58:24.712Z,8.23
2022-11-29T09:02:31.465Z,6.60
2022-11-29T09:06:41.116Z,5.82
2022-11-29T09:10:48.331Z,5.75
2022-11-29T09:14:55.033Z,6.00
2022-11-29T09:19:02.238Z,5.45
2022-11-29T09:23:08.929Z,6.25
2022-11-29T09:27:15.619Z,6.10
2022-11-29T09:31:22.700Z,6.85
2022-11-29T09:35:29.842Z,7.95
2022-11-29T09:39:36.495Z,7.60
2022-11-29T09:44:11.223Z,7.70
2022-11-29T09:48:40.502Z,6.10
2022-11-29T09:53:08.389Z,6.47
2022-11-29T09:57:17.460Z,7.65
2022-11-29T10:01:29.946Z,7.93
2022-11-29T10:09:57.072Z,7.32
2022-11-29T10:14:16.320Z,8.20
2022-11-29T10:18:28.894Z,9.68
2022-11-29T10:22:49.614Z,8.32
2022-11-29T10:26:56.340Z,8.48
2022-11-29T10:31:26.862Z,7.35
2022-11-29T10:35:33.783Z,7.68
2022-11-29T10:39:44.603Z,7.63
2022-11-29T10:43:52.005Z,8.32
2022-11-29T10:48:03.795Z,8.50
2022-11-29T10:52:19.818Z,7.88
2022-11-29T10:56:31.095Z,8.25
2022-11-29T11:01:10.119Z,8.00
2022-11-29T11:05:26.111Z,7.70
2022-11-29T11:09:37.954Z,8.30
2022-11-29T11:14:01.366Z,8.40
2022-11-29T11:18:20.634Z,8.23
2022-11-29T11:22:29.508Z,10.77
2022-11-29T11:26:44.546Z,9.50
2022-11-29T11:31:08.318Z,10.30
2022-11-29T11:35:24.330Z,10.00
2022-11-29T11:39:31.380Z,9.82
2022-11-29T11:43:38.999Z,10.35
2022-11-29T11:47:53.145Z,11.43
2022-11-29T11:52:01.181Z,10.40
2022-11-29T11:56:13.423Z,9.57
2022-11-29T12:01:06.689Z,11.30
2022-11-29T12:05:20.021Z,8.10
2022-11-29T12:09:35.138Z,11.77
2022-11-29T12:13:47.613Z,9.73
2022-11-29T12:22:07.316Z,10.35
2022-11-29T12:26:48.898Z,9.82
2022-11-29T12:31:13.215Z,8.77
2022-11-29T12:35:45.316Z,10.50
2022-11-29T12:39:57.334Z,8.70
2022-11-29T12:44:25.219Z,8.38
2022-11-29T12:49:00.359Z,8.82
2022-11-29T12:53:27.671Z,9.27
2022-11-29T12:57:40.570Z,10.02
2022-11-29T13:01:51.223Z,9.68
2022-11-29T13:06:07.780Z,7.85
2022-11-29T13:10:27.303Z,9.43
2022-11-29T13:15:00.887Z,9.02
2022-11-29T13:19:12.462Z,7.93
2022-11-29T13:23:46.092Z,9.48
2022-11-29T13:28:24.908Z,8.73
2022-11-29T13:32:47.856Z,7.60
2022-11-29T13:37:15.361Z,8.82
2022-11-29T13:41:41.102Z,8.50
2022-11-29T13:46:13.573Z,7.53
2022-11-29T13:50:42.027Z,7.43
2022-11-29T13:55:30.587Z,7.18
2022-11-29T13:59:45.724Z,8.82
2022-11-29T14:04:07.497Z,9.35
2022-11-29T14:09:02.068Z,8.70
2022-11-29T14:13:01.902Z,7.93
2022-11-29T14:17:31.598Z,7.32
2022-11-29T14:22:01.800Z,6.43
2022-11-29T14:26:08.580Z,6.68
2022-11-29T14:30:50.488Z,6.00
2022-11-29T14:35:12.677Z,6.50
2022-11-29T14:39:46.912Z,6.28
2022-11-29T14:44:24.194Z,6.55
2022-11-29T14:48:32.867Z,8.02
2022-11-29T14:52:50.201Z,7.93
2022-11-29T14:56:56.959Z,8.00
2022-11-29T15:01:10.349Z,6.68
2022-11-29T15:05:28.013Z,6.95
2022-11-29T15:09:36.569Z,6.63
2022-11-29T15:13:59.413Z,9.13
2022-11-29T15:18:34.479Z,7.82
2022-11-29T15:22:58.000Z,8.75
2022-11-29T15:27:04.849Z,7.80
2022-11-29T15:31:15.113Z,8.18
2022-11-29T15:35:21.964Z,7.72
2022-11-29T15:39:36.525Z,7.88
2022-11-29T15:43:45.501Z,9.23
2022-11-29T15:47:53.313Z,8.52
2022-11-29T15:52:06.073Z,8.15
2022-11-29T15:56:24.732Z,7.72
2022-11-29T16:00:33.750Z,8.95
2022-11-29T16:04:46.527Z,9.98
2022-11-29T16:08:55.102Z,9.23
2022-11-29T16:13:26.231Z,8.88
2022-11-29T16:17:35.278Z,11.80
2022-11-29T16:21:43.662Z,10.50
2022-11-29T16:25:59.998Z,10.18
2022-11-29T16:30:07.877Z,10.77
2022-11-29T16:34:32.953Z,12.00
2022-11-29T16:38:48.693Z,11.07
2022-11-29T16:43:20.581Z,10.77
2022-11-29T16:47:30.045Z,10.73
2022-11-29T16:51:45.848Z,13.05
2022-11-29T16:55:52.583Z,11.63
2022-11-29T16:59:59.334Z,13.52
2022-11-29T17:04:08.839Z,13.00
2022-11-29T17:08:15.889Z,11.90
2022-11-29T17:12:22.666Z,13.35
2022-11-29T17:16:29.577Z,14.27
2022-11-29T17:20:36.367Z,12.93
2022-11-29T17:24:47.925Z,13.45
2022-11-29T17:28:55.486Z,13.18
2022-11-29T17:33:02.230Z,12.23
2022-11-29T17:37:09.052Z,10.90
2022-11-29T17:41:18.439Z,12.32
2022-11-29T17:45:25.495Z,13.43
2022-11-29T17:49:32.748Z,11.10
2022-11-29T17:53:39.528Z,11.88
2022-11-29T17:57:46.276Z,11.10
2022-11-29T18:01:53.116Z,11.27
2022-11-29T18:06:01.012Z,11.57
2022-11-29T18:10:08.718Z,11.82
2022-11-29T18:14:18.376Z,11.15
2022-11-29T18:18:25.760Z,11.00
2022-11-29T18:22:32.747Z,10.45
2022-11-29T18:26:40.257Z,10.50
2022-11-29T18:30:47.043Z,11.73
2022-11-29T18:34:54.664Z,10.75
2022-11-29T18:39:08.641Z,11.98
2022-11-29T18:43:17.339Z,12.00
2022-11-29T18:47:24.079Z,11.75
2022-11-29T18:51:31.481Z,11.98
2022-11-29T18:55:39.552Z,12.30
2022-11-29T18:59:46.284Z,12.05
2022-11-29T19:03:55.058Z,12.90
2022-11-29T19:08:01.862Z,13.20
2022-11-29T19:12:10.264Z,13.95
2022-11-29T19:16:18.772Z,15.15
2022-11-29T19:20:25.578Z,14.57
2022-11-29T19:24:32.366Z,15.68
2022-11-29T19:28:41.546Z,16.35
2022-11-29T19:32:48.257Z,16.23
2022-11-29T19:36:55.045Z,15.82
2022-11-29T19:41:15.749Z,15.50
2022-11-29T19:45:22.435Z,15.30
2022-11-29T19:49:29.144Z,17.58
2022-11-29T19:53:36.327Z,16.75
2022-11-29T19:57:43.087Z,13.15
2022-11-29T20:01:49.936Z,12.55
2022-11-29T20:05:56.795Z,12.07
2022-11-29T20:10:04.304Z,13.27
2022-11-29T20:14:12.173Z,10.85
2022-11-29T20:18:18.887Z,9.90
2022-11-29T20:22:25.559Z,10.70
2022-11-29T20:26:33.953Z,10.05
2022-11-29T20:30:40.752Z,10.27
2022-11-29T20:34:48.131Z,10.05
2022-11-29T20:38:58.229Z,10.50
2022-11-29T20:43:22.388Z,10.27
2022-11-29T20:47:58.030Z,10.65
2022-11-29T20:52:07.256Z,9.27
2022-11-29T20:56:14.087Z,9.93
2022-11-29T21:00:21.614Z,10.38
2022-11-29T21:04:28.329Z,9.20
2022-11-29T21:08:35.357Z,9.77
2022-11-29T21:12:45.619Z,11.32
2022-11-29T21:16:52.681Z,10.07
2022-11-29T21:21:02.457Z,10.75
2022-11-29T21:25:30.567Z,10.93
2022-11-29T21:29:37.772Z,12.45
2022-11-29T21:33:44.937Z,11.75
2022-11-29T21:37:54.489Z,11.32
2022-11-29T21:42:01.972Z,12.00
2022-11-29T21:46:08.715Z,11.60
2022-11-29T21:50:15.581Z,11.93
2022-11-29T21:54:22.385Z,12.73
2022-11-29T21:58:30.467Z,12.48
2022-11-29T22:02:37.269Z,12.65
2022-11-29T22:06:44.067Z,14.00
2022-11-29T22:11:00.490Z,13.70
2022-11-29T22:15:08.303Z,12.52
2022-11-29T22:19:21.224Z,13.23
2022-11-29T22:23:28.082Z,13.20
2022-11-29T22:27:34.781Z,13.45
2022-11-29T22:31:43.310Z,14.18
2022-11-29T22:35:50.088Z,14.07
2022-11-29T22:39:57.556Z,14.10
2022-11-29T22:44:04.707Z,14.07
2022-11-29T22:48:11.464Z,15.02
2022-11-29T22:52:18.228Z,13.00
2022-11-29T22:56:28.634Z,14.07
2022-11-29T23:00:42.162Z,13.35
2022-11-29T23:04:49.046Z,13.30
2022-11-29T23:08:58.470Z,12.80
2022-11-29T23:13:05.220Z,12.68
2022-11-29T23:17:11.941Z,12.90
2022-11-29T23:21:24.810Z,13.35
2022-11-29T23:25:31.537Z,13.32
2022-11-29T23:29:38.203Z,13.98
2022-11-29T23:33:45.001Z,13.68
2022-11-29T23:37:51.745Z,12.57
2022-11-29T23:41:58.426Z,13.75
2022-11-29T23:46:07.284Z,13.95
2022-11-29T23:50:14.207Z,13.80
2022-11-29T23:54:20.983Z,14.40
2022-11-29T23:58:29.374Z,11.50
